sensor_id;sensor_type;location;lat;lon;timestamp;pressure;altitude;pressure_sealevel;temperature;humidity
38289;BME280;24092;53.370;-6.588;2023-05-02T00:01:06;101646.19;;;6.17;100.00
38289;BME280;24092;53.370;-6.588;2023-05-02T00:03:33;101647.00;;;4.59;100.00
38289;BME280;24092;53.370;-6.588;2023-05-02T00:06:00;101647.23;;;3.27;100.00
38289;BME280;24092;53.370;-6.588;2023-05-02T00:08:27;101647.96;;;5.14;100.00
38289;BME280;24092;53.370;-6.588;2023-05-02T00:10:54;101646.59;;;3.43;100.00
38289;BME280;24092;53.370;-6.588;2023-05-02T00:13:21;101648.08;;;3.80;100.00
38289;BME280;24092;53.370;-6.588;2023-05-02T00:15:48;101653.72;;;4.54;100.00
38289;BME280;24092;53.370;-6.588;2023-05-02T00:18:16;101654.95;;;4.81;100.00
38289;BME280;24092;53.370;-6.588;2023-05-02T00:20:42;101654.91;;;4.83;100.00
38289;BME280;24092;53.370;-6.588;2023-05-02T00:23:10;101657.04;;;5.14;100.00
38289;BME280;24092;53.370;-6.588;2023-05-02T00:25:43;101658.03;;;4.44;100.00
38289;BME280;24092;53.370;-6.588;2023-05-02T00:28:10;101658.43;;;4.64;100.00
38289;BME280;24092;53.370;-6.588;2023-05-02T00:30:41;101653.75;;;6.15;100.00
38289;BME280;24092;53.370;-6.588;2023-05-02T00:33:08;101659.25;;;4.38;100.00
38289;BME280;24092;53.370;-6.588;2023-05-02T00:35:35;101662.50;;;4.35;100.00
38289;BME280;24092;53.370;-6.588;2023-05-02T00:38:02;101662.07;;;3.77;100.00
38289;BME280;24092;53.370;-6.588;2023-05-02T00:40:29;101662.00;;;2.73;100.00
38289;BME280;24092;53.370;-6.588;2023-05-02T00:42:56;101666.79;;;4.25;100.00
38289;BME280;24092;53.370;-6.588;2023-05-02T00:45:23;101669.32;;;2.78;100.00
38289;BME280;24092;53.370;-6.588;2023-05-02T00:47:50;101668.16;;;2.55;100.00
38289;BME280;24092;53.370;-6.588;2023-05-02T00:50:17;101667.15;;;2.88;100.00
38289;BME280;24092;53.370;-6.588;2023-05-02T00:52:45;101666.26;;;2.97;100.00
38289;BME280;24092;53.370;-6.588;2023-05-02T00:55:13;101668.30;;;2.24;100.00
38289;BME280;24092;53.370;-6.588;2023-05-02T00:57:40;101666.73;;;1.86;100.00
38289;BME280;24092;53.370;-6.588;2023-05-02T01:00:08;101662.54;;;3.21;100.00
38289;BME280;24092;53.370;-6.588;2023-05-02T01:02:44;101662.56;;;2.07;100.00
38289;BME280;24092;53.370;-6.588;2023-05-02T01:05:18;101667.34;;;2.58;100.00
38289;BME280;24092;53.370;-6.588;2023-05-02T01:07:58;101665.42;;;2.31;100.00
38289;BME280;24092;53.370;-6.588;2023-05-02T01:10:33;101665.67;;;2.74;100.00
38289;BME280;24092;53.370;-6.588;2023-05-02T01:13:06;101668.47;;;2.47;100.00
38289;BME280;24092;53.370;-6.588;2023-05-02T01:15:38;101667.70;;;2.06;100.00
38289;BME280;24092;53.370;-6.588;2023-05-02T01:18:08;101669.02;;;2.80;100.00
38289;BME280;24092;53.370;-6.588;2023-05-02T01:20:39;101669.12;;;2.81;100.00
38289;BME280;24092;53.370;-6.588;2023-05-02T01:23:15;101667.12;;;3.73;100.00
38289;BME280;24092;53.370;-6.588;2023-05-02T01:25:55;101671.94;;;2.91;100.00
38289;BME280;24092;53.370;-6.588;2023-05-02T01:28:35;101674.13;;;2.98;100.00
38289;BME280;24092;53.370;-6.588;2023-05-02T01:31:05;101673.80;;;3.28;100.00
38289;BME280;24092;53.370;-6.588;2023-05-02T01:33:34;101672.58;;;2.92;100.00
38289;BME280;24092;53.370;-6.588;2023-05-02T01:36:02;101674.84;;;2.34;100.00
38289;BME280;24092;53.370;-6.588;2023-05-02T01:38:32;101673.89;;;2.70;100.00
38289;BME280;24092;53.370;-6.588;2023-05-02T01:41:01;101667.74;;;3.41;100.00
38289;BME280;24092;53.370;-6.588;2023-05-02T01:43:32;101670.59;;;2.29;100.00
38289;BME280;24092;53.370;-6.588;2023-05-02T01:46:01;101672.83;;;2.28;100.00
38289;BME280;24092;53.370;-6.588;2023-05-02T01:48:30;101673.03;;;2.75;100.00
38289;BME280;24092;53.370;-6.588;2023-05-02T01:50:58;101675.20;;;2.67;100.00
38289;BME280;24092;53.370;-6.588;2023-05-02T01:53:27;101674.67;;;2.75;100.00
38289;BME280;24092;53.370;-6.588;2023-05-02T01:55:57;101673.09;;;2.93;100.00
38289;BME280;24092;53.370;-6.588;2023-05-02T01:58:26;101674.98;;;3.36;100.00
38289;BME280;24092;53.370;-6.588;2023-05-02T02:00:56;101674.64;;;2.58;100.00
38289;BME280;24092;53.370;-6.588;2023-05-02T02:03:26;101678.05;;;3.75;100.00
38289;BME280;24092;53.370;-6.588;2023-05-02T02:05:55;101676.86;;;4.76;100.00
38289;BME280;24092;53.370;-6.588;2023-05-02T02:08:23;101674.50;;;2.56;100.00
38289;BME280;24092;53.370;-6.588;2023-05-02T02:10:56;101675.99;;;2.55;100.00
38289;BME280;24092;53.370;-6.588;2023-05-02T02:13:27;101676.43;;;2.49;100.00
38289;BME280;24092;53.370;-6.588;2023-05-02T02:15:59;101680.74;;;3.13;100.00
38289;BME280;24092;53.370;-6.588;2023-05-02T02:18:28;101681.20;;;2.41;100.00
38289;BME280;24092;53.370;-6.588;2023-05-02T02:20:59;101680.93;;;3.61;100.00
38289;BME280;24092;53.370;-6.588;2023-05-02T02:23:28;101676.85;;;2.86;100.00
38289;BME280;24092;53.370;-6.588;2023-05-02T02:25:56;101676.42;;;2.83;100.00
38289;BME280;24092;53.370;-6.588;2023-05-02T02:28:25;101679.55;;;3.99;100.00
38289;BME280;24092;53.370;-6.588;2023-05-02T02:30:53;101687.01;;;3.30;100.00
38289;BME280;24092;53.370;-6.588;2023-05-02T02:33:21;101693.67;;;2.75;100.00
38289;BME280;24092;53.370;-6.588;2023-05-02T02:35:54;101695.91;;;2.25;100.00
38289;BME280;24092;53.370;-6.588;2023-05-02T02:38:31;101693.32;;;3.22;100.00
38289;BME280;24092;53.370;-6.588;2023-05-02T02:41:08;101689.00;;;4.34;100.00
38289;BME280;24092;53.370;-6.588;2023-05-02T02:43:44;101694.65;;;3.48;100.00
38289;BME280;24092;53.370;-6.588;2023-05-02T02:46:21;101690.27;;;2.82;100.00
38289;BME280;24092;53.370;-6.588;2023-05-02T02:48:57;101688.77;;;2.71;100.00
38289;BME280;24092;53.370;-6.588;2023-05-02T02:51:31;101695.93;;;3.53;100.00
38289;BME280;24092;53.370;-6.588;2023-05-02T02:54:08;101689.88;;;3.27;100.00
38289;BME280;24092;53.370;-6.588;2023-05-02T02:56:39;101697.07;;;2.55;100.00
38289;BME280;24092;53.370;-6.588;2023-05-02T02:59:22;101693.65;;;2.67;100.00
38289;BME280;24092;53.370;-6.588;2023-05-02T03:02:02;101696.56;;;2.85;100.00
38289;BME280;24092;53.370;-6.588;2023-05-02T03:04:32;101698.68;;;3.01;100.00
38289;BME280;24092;53.370;-6.588;2023-05-02T03:07:00;101698.88;;;3.08;100.00
38289;BME280;24092;53.370;-6.588;2023-05-02T03:09:27;101695.84;;;2.18;100.00
38289;BME280;24092;53.370;-6.588;2023-05-02T03:11:54;101703.31;;;3.02;100.00
38289;BME280;24092;53.370;-6.588;2023-05-02T03:14:21;101704.36;;;4.07;100.00
38289;BME280;24092;53.370;-6.588;2023-05-02T03:16:49;101704.08;;;3.09;100.00
38289;BME280;24092;53.370;-6.588;2023-05-02T03:19:16;101700.59;;;3.05;100.00
38289;BME280;24092;53.370;-6.588;2023-05-02T03:21:43;101697.03;;;2.88;100.00
38289;BME280;24092;53.370;-6.588;2023-05-02T03:24:10;101696.73;;;2.06;100.00
38289;BME280;24092;53.370;-6.588;2023-05-02T03:26:37;101693.64;;;2.66;100.00
38289;BME280;24092;53.370;-6.588;2023-05-02T03:29:04;101687.38;;;2.39;100.00
38289;BME280;24092;53.370;-6.588;2023-05-02T03:31:31;101681.94;;;1.87;100.00
38289;BME280;24092;53.370;-6.588;2023-05-02T03:33:58;101676.65;;;2.14;100.00
38289;BME280;24092;53.370;-6.588;2023-05-02T03:36:25;101677.58;;;2.32;100.00
38289;BME280;24092;53.370;-6.588;2023-05-02T03:38:52;101677.50;;;1.85;100.00
38289;BME280;24092;53.370;-6.588;2023-05-02T03:41:19;101682.35;;;2.54;100.00
38289;BME280;24092;53.370;-6.588;2023-05-02T03:43:46;101680.99;;;2.61;100.00
38289;BME280;24092;53.370;-6.588;2023-05-02T03:46:13;101678.20;;;1.85;100.00
38289;BME280;24092;53.370;-6.588;2023-05-02T03:48:40;101682.80;;;1.68;100.00
38289;BME280;24092;53.370;-6.588;2023-05-02T03:51:07;101685.34;;;2.32;100.00
38289;BME280;24092;53.370;-6.588;2023-05-02T03:53:35;101689.17;;;2.07;100.00
38289;BME280;24092;53.370;-6.588;2023-05-02T03:56:02;101692.46;;;4.11;100.00
38289;BME280;24092;53.370;-6.588;2023-05-02T03:58:29;101693.37;;;2.87;100.00
38289;BME280;24092;53.370;-6.588;2023-05-02T04:00:56;101699.97;;;2.09;100.00
38289;BME280;24092;53.370;-6.588;2023-05-02T04:03:23;101697.20;;;2.20;100.00
38289;BME280;24092;53.370;-6.588;2023-05-02T04:05:50;101688.88;;;2.41;100.00
38289;BME280;24092;53.370;-6.588;2023-05-02T04:08:17;101692.12;;;3.40;100.00
38289;BME280;24092;53.370;-6.588;2023-05-02T04:10:44;101691.44;;;3.84;100.00
38289;BME280;24092;53.370;-6.588;2023-05-02T04:13:11;101692.43;;;1.88;100.00
38289;BME280;24092;53.370;-6.588;2023-05-02T04:15:38;101691.70;;;2.37;100.00
38289;BME280;24092;53.370;-6.588;2023-05-02T04:18:06;101687.84;;;2.93;100.00
38289;BME280;24092;53.370;-6.588;2023-05-02T04:20:33;101689.75;;;3.06;100.00
38289;BME280;24092;53.370;-6.588;2023-05-02T04:23:01;101695.76;;;2.44;100.00
38289;BME280;24092;53.370;-6.588;2023-05-02T04:25:28;101696.79;;;2.34;100.00
38289;BME280;24092;53.370;-6.588;2023-05-02T04:27:55;101693.27;;;2.88;100.00
38289;BME280;24092;53.370;-6.588;2023-05-02T04:30:22;101694.02;;;2.67;100.00
38289;BME280;24092;53.370;-6.588;2023-05-02T04:32:49;101693.62;;;2.58;100.00
38289;BME280;24092;53.370;-6.588;2023-05-02T04:35:16;101694.87;;;3.12;100.00
38289;BME280;24092;53.370;-6.588;2023-05-02T04:37:43;101697.69;;;2.02;100.00
38289;BME280;24092;53.370;-6.588;2023-05-02T04:40:11;101695.02;;;2.74;100.00
38289;BME280;24092;53.370;-6.588;2023-05-02T04:42:38;101691.40;;;3.68;100.00
38289;BME280;24092;53.370;-6.588;2023-05-02T04:45:06;101689.45;;;3.80;100.00
38289;BME280;24092;53.370;-6.588;2023-05-02T04:47:34;101687.09;;;2.89;100.00
38289;BME280;24092;53.370;-6.588;2023-05-02T04:50:01;101688.83;;;4.23;100.00
38289;BME280;24092;53.370;-6.588;2023-05-02T04:52:29;101689.78;;;4.29;100.00
38289;BME280;24092;53.370;-6.588;2023-05-02T04:54:57;101689.16;;;4.30;100.00
38289;BME280;24092;53.370;-6.588;2023-05-02T04:57:24;101690.59;;;3.04;100.00
38289;BME280;24092;53.370;-6.588;2023-05-02T04:59:51;101695.78;;;4.15;100.00
38289;BME280;24092;53.370;-6.588;2023-05-02T05:02:18;101700.66;;;2.42;100.00
38289;BME280;24092;53.370;-6.588;2023-05-02T05:04:45;101700.67;;;3.41;100.00
38289;BME280;24092;53.370;-6.588;2023-05-02T05:07:12;101706.11;;;3.54;100.00
38289;BME280;24092;53.370;-6.588;2023-05-02T05:09:39;101709.34;;;4.37;100.00
38289;BME280;24092;53.370;-6.588;2023-05-02T05:12:06;101711.36;;;3.33;100.00
38289;BME280;24092;53.370;-6.588;2023-05-02T05:14:33;101711.05;;;3.24;100.00
38289;BME280;24092;53.370;-6.588;2023-05-02T05:17:00;101712.30;;;2.77;100.00
38289;BME280;24092;53.370;-6.588;2023-05-02T05:19:27;101708.34;;;2.21;100.00
38289;BME280;24092;53.370;-6.588;2023-05-02T05:21:54;101709.73;;;2.72;100.00
38289;BME280;24092;53.370;-6.588;2023-05-02T05:24:21;101705.71;;;2.45;100.00
38289;BME280;24092;53.370;-6.588;2023-05-02T05:26:48;101710.96;;;2.07;100.00
38289;BME280;24092;53.370;-6.588;2023-05-02T05:29:15;101713.71;;;2.27;100.00
38289;BME280;24092;53.370;-6.588;2023-05-02T05:31:42;101706.24;;;3.53;100.00
38289;BME280;24092;53.370;-6.588;2023-05-02T05:34:09;101703.34;;;3.10;100.00
38289;BME280;24092;53.370;-6.588;2023-05-02T05:36:38;101706.66;;;1.30;100.00
38289;BME280;24092;53.370;-6.588;2023-05-02T05:39:06;101706.21;;;2.67;100.00
38289;BME280;24092;53.370;-6.588;2023-05-02T05:41:33;101703.49;;;2.16;100.00
38289;BME280;24092;53.370;-6.588;2023-05-02T05:44:00;101707.91;;;2.20;100.00
38289;BME280;24092;53.370;-6.588;2023-05-02T05:46:28;101709.60;;;2.41;100.00
38289;BME280;24092;53.370;-6.588;2023-05-02T05:48:54;101706.21;;;2.70;100.00
38289;BME280;24092;53.370;-6.588;2023-05-02T05:51:21;101710.04;;;2.97;100.00
38289;BME280;24092;53.370;-6.588;2023-05-02T05:53:48;101706.70;;;2.23;100.00
38289;BME280;24092;53.370;-6.588;2023-05-02T05:56:15;101701.74;;;2.77;100.00
38289;BME280;24092;53.370;-6.588;2023-05-02T05:58:42;101700.21;;;2.10;100.00
38289;BME280;24092;53.370;-6.588;2023-05-02T06:01:09;101698.71;;;1.93;100.00
38289;BME280;24092;53.370;-6.588;2023-05-02T06:03:36;101703.82;;;3.43;100.00
38289;BME280;24092;53.370;-6.588;2023-05-02T06:06:03;101699.69;;;3.62;100.00
38289;BME280;24092;53.370;-6.588;2023-05-02T06:08:31;101706.80;;;2.91;100.00
38289;BME280;24092;53.370;-6.588;2023-05-02T06:10:58;101710.25;;;3.66;100.00
38289;BME280;24092;53.370;-6.588;2023-05-02T06:13:25;101709.55;;;4.08;100.00
38289;BME280;24092;53.370;-6.588;2023-05-02T06:15:52;101712.10;;;4.45;100.00
38289;BME280;24092;53.370;-6.588;2023-05-02T06:18:19;101710.38;;;4.21;100.00
38289;BME280;24092;53.370;-6.588;2023-05-02T06:20:46;101713.02;;;4.72;100.00
38289;BME280;24092;53.370;-6.588;2023-05-02T06:23:13;101716.44;;;5.30;100.00
38289;BME280;24092;53.370;-6.588;2023-05-02T06:25:40;101716.75;;;5.49;100.00
38289;BME280;24092;53.370;-6.588;2023-05-02T06:28:07;101713.39;;;5.80;100.00
38289;BME280;24092;53.370;-6.588;2023-05-02T06:30:34;101716.39;;;5.00;100.00
38289;BME280;24092;53.370;-6.588;2023-05-02T06:33:03;101716.33;;;4.02;100.00
38289;BME280;24092;53.370;-6.588;2023-05-02T06:35:30;101718.63;;;3.52;100.00
38289;BME280;24092;53.370;-6.588;2023-05-02T06:37:57;101722.03;;;3.60;100.00
38289;BME280;24092;53.370;-6.588;2023-05-02T06:40:24;101719.90;;;2.97;100.00
38289;BME280;24092;53.370;-6.588;2023-05-02T06:42:51;101718.42;;;3.83;100.00
38289;BME280;24092;53.370;-6.588;2023-05-02T06:45:18;101719.39;;;4.71;100.00
38289;BME280;24092;53.370;-6.588;2023-05-02T06:47:45;101716.83;;;4.57;100.00
38289;BME280;24092;53.370;-6.588;2023-05-02T06:50:12;101709.84;;;4.58;100.00
38289;BME280;24092;53.370;-6.588;2023-05-02T06:52:39;101716.14;;;5.18;100.00
38289;BME280;24092;53.370;-6.588;2023-05-02T06:55:07;101720.58;;;5.68;100.00
38289;BME280;24092;53.370;-6.588;2023-05-02T06:57:34;101719.18;;;4.17;100.00
38289;BME280;24092;53.370;-6.588;2023-05-02T07:00:01;101720.53;;;5.26;100.00
38289;BME280;24092;53.370;-6.588;2023-05-02T07:02:28;101714.70;;;7.05;100.00
38289;BME280;24092;53.370;-6.588;2023-05-02T07:04:55;101719.20;;;4.07;100.00
38289;BME280;24092;53.370;-6.588;2023-05-02T07:07:22;101720.98;;;4.71;100.00
38289;BME280;24092;53.370;-6.588;2023-05-02T07:09:49;101718.87;;;4.52;100.00
38289;BME280;24092;53.370;-6.588;2023-05-02T07:12:16;101714.82;;;4.83;100.00
38289;BME280;24092;53.370;-6.588;2023-05-02T07:14:43;101712.51;;;5.75;100.00
38289;BME280;24092;53.370;-6.588;2023-05-02T07:17:09;101716.37;;;5.53;100.00
38289;BME280;24092;53.370;-6.588;2023-05-02T07:19:36;101711.85;;;6.27;100.00
38289;BME280;24092;53.370;-6.588;2023-05-02T07:22:03;101721.02;;;5.95;100.00
38289;BME280;24092;53.370;-6.588;2023-05-02T07:24:30;101719.70;;;7.22;100.00
38289;BME280;24092;53.370;-6.588;2023-05-02T07:26:57;101718.41;;;7.91;100.00
38289;BME280;24092;53.370;-6.588;2023-05-02T07:29:24;101709.87;;;7.63;100.00
38289;BME280;24092;53.370;-6.588;2023-05-02T07:31:51;101706.98;;;7.70;100.00
38289;BME280;24092;53.370;-6.588;2023-05-02T07:34:19;101707.93;;;7.69;100.00
38289;BME280;24092;53.370;-6.588;2023-05-02T07:36:46;101709.66;;;7.51;100.00
38289;BME280;24092;53.370;-6.588;2023-05-02T07:39:12;101714.07;;;10.48;100.00
38289;BME280;24092;53.370;-6.588;2023-05-02T07:41:39;101710.24;;;10.73;100.00
38289;BME280;24092;53.370;-6.588;2023-05-02T07:44:06;101716.70;;;7.62;100.00
38289;BME280;24092;53.370;-6.588;2023-05-02T07:46:33;101717.52;;;12.06;100.00
38289;BME280;24092;53.370;-6.588;2023-05-02T07:48:59;101716.06;;;7.26;100.00
38289;BME280;24092;53.370;-6.588;2023-05-02T07:51:26;101716.16;;;8.96;100.00
38289;BME280;24092;53.370;-6.588;2023-05-02T07:53:53;101714.00;;;10.43;100.00
38289;BME280;24092;53.370;-6.588;2023-05-02T07:56:21;101718.71;;;12.00;100.00
38289;BME280;24092;53.370;-6.588;2023-05-02T07:58:47;101713.98;;;11.12;100.00
38289;BME280;24092;53.370;-6.588;2023-05-02T08:01:15;101714.99;;;8.42;100.00
38289;BME280;24092;53.370;-6.588;2023-05-02T08:03:41;101718.49;;;7.90;100.00
38289;BME280;24092;53.370;-6.588;2023-05-02T08:06:08;101724.74;;;8.85;100.00
38289;BME280;24092;53.370;-6.588;2023-05-02T08:08:36;101724.20;;;10.34;100.00
38289;BME280;24092;53.370;-6.588;2023-05-02T08:11:03;101718.52;;;8.60;100.00
38289;BME280;24092;53.370;-6.588;2023-05-02T08:13:31;101722.48;;;12.61;100.00
38289;BME280;24092;53.370;-6.588;2023-05-02T08:15:58;101723.49;;;12.56;100.00
38289;BME280;24092;53.370;-6.588;2023-05-02T08:18:24;101731.88;;;10.33;100.00
38289;BME280;24092;53.370;-6.588;2023-05-02T08:20:51;101742.86;;;10.12;100.00
38289;BME280;24092;53.370;-6.588;2023-05-02T08:23:18;101746.15;;;13.32;100.00
38289;BME280;24092;53.370;-6.588;2023-05-02T08:25:45;101743.32;;;10.74;100.00
38289;BME280;24092;53.370;-6.588;2023-05-02T08:28:13;101745.60;;;9.40;100.00
38289;BME280;24092;53.370;-6.588;2023-05-02T08:30:40;101746.96;;;9.25;100.00
38289;BME280;24092;53.370;-6.588;2023-05-02T08:33:07;101751.80;;;11.56;100.00
38289;BME280;24092;53.370;-6.588;2023-05-02T08:35:34;101752.13;;;10.55;100.00
38289;BME280;24092;53.370;-6.588;2023-05-02T08:38:01;101753.96;;;8.76;100.00
38289;BME280;24092;53.370;-6.588;2023-05-02T08:40:35;101760.07;;;8.99;100.00
38289;BME280;24092;53.370;-6.588;2023-05-02T08:43:03;101761.39;;;10.25;100.00
38289;BME280;24092;53.370;-6.588;2023-05-02T08:45:34;101768.05;;;9.92;100.00
38289;BME280;24092;53.370;-6.588;2023-05-02T08:48:03;101766.96;;;10.04;100.00
38289;BME280;24092;53.370;-6.588;2023-05-02T08:50:32;101755.85;;;12.68;100.00
38289;BME280;24092;53.370;-6.588;2023-05-02T08:53:03;101753.94;;;8.21;100.00
38289;BME280;24092;53.370;-6.588;2023-05-02T08:55:31;101754.58;;;9.70;100.00
38289;BME280;24092;53.370;-6.588;2023-05-02T08:57:58;101751.03;;;8.88;100.00
38289;BME280;24092;53.370;-6.588;2023-05-02T09:00:26;101755.93;;;8.77;100.00
38289;BME280;24092;53.370;-6.588;2023-05-02T09:03:04;101760.19;;;10.60;100.00
38289;BME280;24092;53.370;-6.588;2023-05-02T09:05:38;101756.34;;;9.66;100.00
38289;BME280;24092;53.370;-6.588;2023-05-02T09:08:06;101760.44;;;10.38;100.00
38289;BME280;24092;53.370;-6.588;2023-05-02T09:10:34;101764.51;;;10.05;100.00
38289;BME280;24092;53.370;-6.588;2023-05-02T09:13:37;101763.55;;;10.27;100.00
38289;BME280;24092;53.370;-6.588;2023-05-02T09:16:06;101752.38;;;12.97;100.00
38289;BME280;24092;53.370;-6.588;2023-05-02T09:18:36;101747.61;;;14.39;100.00
38289;BME280;24092;53.370;-6.588;2023-05-02T09:21:05;101745.32;;;12.70;100.00
38289;BME280;24092;53.370;-6.588;2023-05-02T09:23:36;101746.88;;;11.03;100.00
38289;BME280;24092;53.370;-6.588;2023-05-02T09:26:14;101746.01;;;13.41;100.00
38289;BME280;24092;53.370;-6.588;2023-05-02T09:28:43;101742.98;;;14.02;100.00
38289;BME280;24092;53.370;-6.588;2023-05-02T09:31:12;101734.14;;;11.39;100.00
38289;BME280;24092;53.370;-6.588;2023-05-02T09:33:40;101727.88;;;10.16;100.00
38289;BME280;24092;53.370;-6.588;2023-05-02T09:36:09;101728.45;;;9.38;100.00
38289;BME280;24092;53.370;-6.588;2023-05-02T09:38:37;101726.26;;;10.03;100.00
38289;BME280;24092;53.370;-6.588;2023-05-02T09:41:04;101725.43;;;11.10;100.00
38289;BME280;24092;53.370;-6.588;2023-05-02T09:43:31;101735.69;;;9.60;100.00
38289;BME280;24092;53.370;-6.588;2023-05-02T09:46:00;101742.67;;;9.39;100.00
38289;BME280;24092;53.370;-6.588;2023-05-02T09:48:29;101748.05;;;9.60;100.00
38289;BME280;24092;53.370;-6.588;2023-05-02T09:50:56;101745.87;;;12.88;100.00
38289;BME280;24092;53.370;-6.588;2023-05-02T09:53:24;101743.29;;;11.23;100.00
38289;BME280;24092;53.370;-6.588;2023-05-02T09:56:01;101739.22;;;11.42;100.00
38289;BME280;24092;53.370;-6.588;2023-05-02T09:58:29;101744.55;;;10.03;100.00
38289;BME280;24092;53.370;-6.588;2023-05-02T10:00:57;101744.23;;;12.07;100.00
38289;BME280;24092;53.370;-6.588;2023-05-02T10:03:26;101746.52;;;12.16;100.00
38289;BME280;24092;53.370;-6.588;2023-05-02T10:05:55;101756.35;;;9.40;100.00
38289;BME280;24092;53.370;-6.588;2023-05-02T10:08:24;101761.50;;;10.06;100.00
38289;BME280;24092;53.370;-6.588;2023-05-02T10:10:53;101752.64;;;13.12;100.00
38289;BME280;24092;53.370;-6.588;2023-05-02T10:13:22;101751.91;;;11.43;100.00
38289;BME280;24092;53.370;-6.588;2023-05-02T10:15:56;101755.81;;;9.41;100.00
38289;BME280;24092;53.370;-6.588;2023-05-02T10:18:27;101757.46;;;8.74;100.00
38289;BME280;24092;53.370;-6.588;2023-05-02T10:20:57;101758.55;;;12.07;100.00
38289;BME280;24092;53.370;-6.588;2023-05-02T10:23:26;101763.86;;;11.43;100.00
38289;BME280;24092;53.370;-6.588;2023-05-02T10:25:54;101756.37;;;11.34;100.00
38289;BME280;24092;53.370;-6.588;2023-05-02T10:28:22;101758.62;;;10.94;100.00
38289;BME280;24092;53.370;-6.588;2023-05-02T10:30:49;101766.27;;;9.92;100.00
38289;BME280;24092;53.370;-6.588;2023-05-02T10:33:19;101764.13;;;8.71;100.00
38289;BME280;24092;53.370;-6.588;2023-05-02T10:35:47;101772.50;;;9.69;100.00
38289;BME280;24092;53.370;-6.588;2023-05-02T10:38:18;101773.24;;;12.85;100.00
38289;BME280;24092;53.370;-6.588;2023-05-02T10:40:49;101777.45;;;9.74;100.00
38289;BME280;24092;53.370;-6.588;2023-05-02T10:43:17;101777.37;;;9.80;100.00
38289;BME280;24092;53.370;-6.588;2023-05-02T10:45:45;101779.06;;;12.18;100.00
38289;BME280;24092;53.370;-6.588;2023-05-02T10:48:14;101779.72;;;14.99;100.00
38289;BME280;24092;53.370;-6.588;2023-05-02T10:50:44;101772.85;;;16.18;100.00
38289;BME280;24092;53.370;-6.588;2023-05-02T10:53:30;101775.47;;;15.62;100.00
38289;BME280;24092;53.370;-6.588;2023-05-02T10:56:30;101777.28;;;16.89;100.00
38289;BME280;24092;53.370;-6.588;2023-05-02T10:59:26;101777.95;;;16.56;100.00
38289;BME280;24092;53.370;-6.588;2023-05-02T11:01:53;101772.38;;;17.26;100.00
38289;BME280;24092;53.370;-6.588;2023-05-02T11:04:20;101769.51;;;17.32;100.00
38289;BME280;24092;53.370;-6.588;2023-05-02T11:07:19;101769.99;;;17.90;100.00
38289;BME280;24092;53.370;-6.588;2023-05-02T11:09:47;101774.31;;;14.13;100.00
38289;BME280;24092;53.370;-6.588;2023-05-02T11:12:42;101767.38;;;10.98;100.00
38289;BME280;24092;53.370;-6.588;2023-05-02T11:15:09;101765.60;;;15.80;100.00
38289;BME280;24092;53.370;-6.588;2023-05-02T11:18:13;101762.24;;;16.06;100.00
38289;BME280;24092;53.370;-6.588;2023-05-02T11:20:42;101761.00;;;12.49;100.00
38289;BME280;24092;53.370;-6.588;2023-05-02T11:23:25;101764.72;;;15.95;100.00
38289;BME280;24092;53.370;-6.588;2023-05-02T11:25:54;101761.51;;;16.79;100.00
38289;BME280;24092;53.370;-6.588;2023-05-02T11:28:41;101762.34;;;17.10;100.00
38289;BME280;24092;53.370;-6.588;2023-05-02T11:31:47;101765.32;;;16.94;100.00
38289;BME280;24092;53.370;-6.588;2023-05-02T11:34:18;101761.71;;;15.93;100.00
38289;BME280;24092;53.370;-6.588;2023-05-02T11:36:46;101765.58;;;14.05;100.00
38289;BME280;24092;53.370;-6.588;2023-05-02T11:39:19;101766.84;;;11.15;100.00
38289;BME280;24092;53.370;-6.588;2023-05-02T11:41:46;101764.47;;;12.51;100.00
38289;BME280;24092;53.370;-6.588;2023-05-02T11:44:14;101768.37;;;12.40;100.00
38289;BME280;24092;53.370;-6.588;2023-05-02T11:46:41;101776.70;;;11.21;100.00
38289;BME280;24092;53.370;-6.588;2023-05-02T11:49:08;101770.28;;;11.49;100.00
38289;BME280;24092;53.370;-6.588;2023-05-02T11:51:36;101766.60;;;14.02;100.00
38289;BME280;24092;53.370;-6.588;2023-05-02T11:54:03;101770.93;;;14.71;100.00
38289;BME280;24092;53.370;-6.588;2023-05-02T11:56:31;101764.97;;;16.99;100.00
38289;BME280;24092;53.370;-6.588;2023-05-02T11:58:59;101764.27;;;18.19;100.00
38289;BME280;24092;53.370;-6.588;2023-05-02T12:01:26;101767.79;;;13.42;100.00
38289;BME280;24092;53.370;-6.588;2023-05-02T12:04:01;101764.03;;;15.82;100.00
38289;BME280;24092;53.370;-6.588;2023-05-02T12:06:29;101763.47;;;17.99;100.00
38289;BME280;24092;53.370;-6.588;2023-05-02T12:09:06;101766.93;;;18.50;100.00
38289;BME280;24092;53.370;-6.588;2023-05-02T12:11:33;101767.22;;;18.94;100.00
38289;BME280;24092;53.370;-6.588;2023-05-02T12:14:01;101763.66;;;18.18;100.00
38289;BME280;24092;53.370;-6.588;2023-05-02T12:16:29;101757.55;;;17.94;100.00
38289;BME280;24092;53.370;-6.588;2023-05-02T12:18:57;101753.06;;;17.81;100.00
38289;BME280;24092;53.370;-6.588;2023-05-02T12:21:25;101756.84;;;11.88;100.00
38289;BME280;24092;53.370;-6.588;2023-05-02T12:23:52;101749.98;;;16.10;100.00
38289;BME280;24092;53.370;-6.588;2023-05-02T12:26:21;101750.26;;;11.77;100.00
38289;BME280;24092;53.370;-6.588;2023-05-02T12:28:50;101747.41;;;12.05;100.00
38289;BME280;24092;53.370;-6.588;2023-05-02T12:31:17;101757.69;;;12.04;100.00
38289;BME280;24092;53.370;-6.588;2023-05-02T12:33:46;101759.33;;;13.56;100.00
38289;BME280;24092;53.370;-6.588;2023-05-02T12:36:13;101754.96;;;16.17;100.00
38289;BME280;24092;53.370;-6.588;2023-05-02T12:38:47;101749.03;;;16.86;100.00
38289;BME280;24092;53.370;-6.588;2023-05-02T12:41:14;101746.61;;;16.47;100.00
38289;BME280;24092;53.370;-6.588;2023-05-02T12:43:45;101746.75;;;16.50;100.00
38289;BME280;24092;53.370;-6.588;2023-05-02T12:46:12;101742.44;;;15.51;100.00
38289;BME280;24092;53.370;-6.588;2023-05-02T12:48:40;101739.07;;;15.76;100.00